• Join FlightAware (Why Join?)
  • Login
  • US Flag 
08:40AM EDT


 

Airport Tracker/Info


-or-


 

Live Flight TrackerFlight Track Log ✈ CPZ5750 ✈ 09-Jul-2013 ✈ KALB - KMSP

Flight Track Log - Related Links

Times and Time Zones

All times are in EDT time to prevent confusion due to time zone crossing. See the CPZ5750 flight status page for this flight to view local times or setup timezone preferences in your user account.

Time Position Orientation Groundspeed Altitude Reporting Facility
EDT Latitude Longitude Course Direction KTS MPH feet Rate Location/Type
07:35PM 42.7106 -73.8586 251° West 222 255 2,700  Level Boston Center
07:37PM 42.7967 -73.9681 317° Northwest 300 345 6,600 2,700 Climbing Boston Center
07:38PM 42.8581 -74.0431 318° Northwest 285 328 10,000 2,220 Climbing Boston Center
07:39PM 42.9236 -74.1244 318° Northwest 296 341 11,100 1,740 Climbing Boston Center
07:40PM 42.9931 -74.2142 317° Northwest 335 386 13,500 2,100 Climbing Boston Center
07:41PM 43.0667 -74.3072 317° Northwest 350 403 15,400 1,860 Climbing Boston Center
07:42PM 43.1400 -74.4006 317° Northwest 355 409 17,300 1,560 Climbing Boston Center
07:43PM 43.1797 -74.5158 295° West 360 414 18,600 1,380 Climbing Boston Center
07:44PM 43.1769 -74.6608 269° West 347 399 20,100 1,500 Climbing Boston Center
07:45PM 43.1761 -74.8089 270° West 373 429 21,700 1,440 Climbing Boston Center
07:46PM 43.1750 -74.9597 269° West 384 442 23,000 1,380 Climbing Boston Center
07:47PM 43.1819 -75.1111 274° West 396 456 24,500 1,380 Climbing Boston Center
07:48PM 43.2097 -75.2606 284° West 401 461 25,800 1,140 Climbing Boston Center
07:49PM 43.2467 -75.4389 286° West 406 467 27,100 840 Climbing Boston Center
07:50PM 43.2761 -75.5914 285° West 411 473 27,700 600 Climbing Boston Center
07:51PM 43.3050 -75.7472 284° West 416 479 28,300 600 Climbing Boston Center
07:52PM 43.3356 -75.9086 285° West 429 494 28,900 600 Climbing Boston Center
07:53PM 43.3908 -76.0719 295° West 434 499 29,500 720 Climbing Boston Center
07:54PM 43.4658 -76.2108 307° West 434 499 30,400 1,020 Climbing Boston Center
07:55PM 43.5361 -76.3500 305° West 441 507 31,600 1,200 Climbing Boston Center
07:56PM 43.5958 -76.4886 301° West 441 507 32,800 780 Climbing Boston Center
07:57PM 43.6214 -76.6511 282° West 427 491 33,200 540 Climbing Boston Center
07:58PM 43.6464 -76.8164 282° West 432 497 33,900 300 Climbing Boston Center
07:59PM 43.6667 -77.0333 277° West 450 518 34,000  Climbing Toronto Center
08:00PM 43.7000 -77.1833 287° West 450 518 34,000  Level Toronto Center
08:01PM 43.7167 -77.3667 277° West 460 529 34,000  Level Toronto Center
08:02PM 43.7500 -77.5333 286° West 460 529 34,000  Level Toronto Center
08:03PM 43.7833 -77.7167 284° West 460 529 34,000  Level Toronto Center
08:04PM 43.8000 -77.8833 278° West 460 529 34,000  Level Toronto Center
08:05PM 43.8167 -78.0667 277° West 460 529 34,000  Level Toronto Center
08:06PM 43.8500 -78.2167 287° West 450 518 34,000  Level Toronto Center
08:07PM 43.8667 -78.4000 277° West 460 529 34,000  Level Toronto Center
08:08PM 43.9000 -78.5667 286° West 460 529 34,000  Level Toronto Center
08:09PM 43.9333 -78.7500 284° West 450 518 34,000  Level Toronto Center
08:11PM 43.9667 -79.0833 278° West 450 518 34,000  Level Toronto Center
08:12PM 44.0000 -79.2667 284° West 450 518 34,000  Level Toronto Center
08:13PM 44.0167 -79.4167 279° West 450 518 34,000  Level Toronto Center
08:14PM 44.0333 -79.5833 278° West 450 518 34,000  Level Toronto Center
08:15PM 44.0667 -79.7667 284° West 450 518 34,000  Level Toronto Center
08:16PM 44.0833 -79.9333 278° West 450 518 34,000  Level Toronto Center
08:17PM 44.1000 -80.1167 277° West 450 518 34,000  Level Toronto Center
08:18PM 44.1333 -80.2833 286° West 450 518 34,000  Level Toronto Center
08:19PM 44.1500 -80.4500 278° West 440 506 34,000  Level Toronto Center
08:20PM 44.1667 -80.6333 277° West 440 506 34,000  Level Toronto Center
08:21PM 44.2000 -80.8000 286° West 440 506 34,000  Level Toronto Center
08:22PM 44.2000 -80.9667 270° West 440 506 34,000  Level Toronto Center
08:23PM 44.2167 -81.1167 279° West 440 506 34,000  Level Toronto Center
08:24PM 44.2500 -81.2833 286° West 440 506 34,000  Level Toronto Center
08:25PM 44.2667 -81.4667 277° West 440 506 34,000  Level Toronto Center
08:26PM 44.2833 -81.6333 278° West 440 506 34,000  Level Toronto Center
08:27PM 44.3167 -81.8000 286° West 440 506 34,000  Level Toronto Center
08:28PM 44.3167 -81.9667 270° West 440 506 34,000  Level Toronto Center
08:29PM 44.3333 -82.1500 277° West 450 518 34,000  Level Toronto Center
08:30PM 44.3500 -82.3167 278° West 440 506 34,000  Level Toronto Center
08:31PM 44.3756 -82.3936 295° West 443 510 34,000  Level Minneapolis Center
08:32PM 44.3944 -82.5600 279° West 438 504 34,000  Level Minneapolis Center
08:33PM 44.4133 -82.7264 279° West 436 502 34,000  Level Minneapolis Center
08:34PM 44.4242 -82.8603 277° West 435 501 34,000  Level Minneapolis Center
08:35PM 44.4489 -83.0925 279° West 432 497 34,000  Level Minneapolis Center
08:36PM 44.4644 -83.2583 278° West 432 497 34,000  Level Minneapolis Center
08:37PM 44.4808 -83.4231 278° West 430 495 34,000  Level Minneapolis Center
08:38PM 44.4978 -83.5875 278° West 428 493 34,000  Level Minneapolis Center
08:39PM 44.5122 -83.7528 277° West 428 493 34,000  Level Minneapolis Center
08:40PM 44.5278 -83.9175 278° West 428 493 34,000  Level Minneapolis Center
08:41PM 44.5464 -84.1142 278° West 426 490 34,000  Level Minneapolis Center
08:42PM 44.5608 -84.2769 277° West 423 487 34,000  Level Minneapolis Center
08:43PM 44.5747 -84.4400 277° West 422 486 34,000  Level Minneapolis Center
08:45PM 44.5925 -84.6367 277° West 424 488 34,000  Level Minneapolis Center
08:46PM 44.6075 -84.8006 277° West 425 489 34,000  Level Minneapolis Center
08:47PM 44.6267 -85.0286 277° West 423 487 34,000  Level Minneapolis Center
08:48PM 44.6397 -85.1931 276° West 422 486 34,000  Level Minneapolis Center
08:49PM 44.6533 -85.3578 277° West 426 490 34,000  Level Minneapolis Center
08:50PM 44.6653 -85.5242 276° West 428 493 34,000  Level Minneapolis Center
08:51PM 44.6628 -85.6969 269° West 425 489 34,000  Level Minneapolis Center
08:52PM 44.6581 -85.8622 268° West 421 484 34,000  Level Minneapolis Center
08:53PM 44.6519 -86.0206 267° West 418 481 34,000  Level Minneapolis Center
08:54PM 44.6478 -86.1500 267° West 417 480 34,000  Level Minneapolis Center
08:55PM 44.6378 -86.3825 267° West 419 482 34,000  Level Minneapolis Center
08:56PM 44.6317 -86.5453 267° West 419 482 34,000  Level Minneapolis Center
08:57PM 44.6258 -86.7078 267° West 417 480 34,000  Level Minneapolis Center
08:58PM 44.6194 -86.8700 267° West 417 480 34,000  Level Minneapolis Center
08:59PM 44.6128 -87.0331 267° West 418 481 34,000  Level Minneapolis Center
09:00PM 44.6056 -87.1969 267° West 422 486 34,000  Level Minneapolis Center
09:01PM 44.5969 -87.3903 266° West 416 479 34,000  Level Minneapolis Center
09:02PM 44.5878 -87.5522 266° West 416 479 34,000  Level Minneapolis Center
09:03PM 44.5803 -87.7114 266° West 413 475 34,000  Level Minneapolis Center
09:04PM 44.5719 -87.8742 266° West 417 480 34,000  Level Minneapolis Center
09:05PM 44.5631 -88.0522 266° West 418 481 34,000  Level Minneapolis Center
09:07PM 44.5575 -88.2131 267° West 416 479 34,000  Level Minneapolis Center
09:08PM 44.5772 -88.3767 280° West 424 488 34,000 -60 Level Minneapolis Center
09:09PM 44.5950 -88.5344 279° West 416 479 33,900 -660 Descending Minneapolis Center
09:10PM 44.6164 -88.7242 279° West 420 483 32,700 -960 Descending Minneapolis Center
09:11PM 44.6350 -88.8875 279° West 423 487 32,000 -360 Descending Minneapolis Center
09:12PM 44.6533 -89.0525 279° West 426 490 32,000  Level Minneapolis Center
09:13PM 44.6714 -89.2133 279° West 422 486 32,000  Level Minneapolis Center
09:14PM 44.6894 -89.3758 279° West 421 484 32,000  Level Minneapolis Center
09:15PM 44.7100 -89.5631 279° West 416 479 32,000  Level Minneapolis Center
09:16PM 44.7294 -89.7528 278° West 420 483 32,000  Level Minneapolis Center
09:17PM 44.7461 -89.9147 278° West 420 483 32,000  Level Minneapolis Center
09:18PM 44.7631 -90.0753 279° West 417 480 32,000  Level Minneapolis Center
09:19PM 44.7794 -90.2353 278° West 414 476 32,000  Level Minneapolis Center
09:20PM 44.8003 -90.4242 279° West 417 480 32,000  Level Minneapolis Center
09:21PM 44.8225 -90.5736 282° West 417 480 32,000 -60 Level Minneapolis Center
09:22PM 44.8486 -90.7556 282° West 419 482 31,900 -1,020 Descending Minneapolis Center
09:23PM 44.8669 -90.8936 281° West 417 480 30,000 -2,220 Descending Minneapolis Center
09:24PM 44.8917 -91.0833 280° West 413 475 27,400 -2,040 Descending Minneapolis Center
09:25PM 44.9125 -91.2342 281° West 402 463 25,400 -1,860 Descending Minneapolis Center
09:27PM 44.9322 -91.4128 279° West 391 450 23,300 -2,040 Descending Minneapolis Center
09:28PM 44.9217 -91.5617 264° West 385 443 21,300 -2,040 Descending Minneapolis Center
09:29PM 44.9167 -91.7028 267° West 366 421 19,200 -2,100 Descending Minneapolis Center
09:30PM 44.9094 -91.8417 266° West 358 412 17,000 -2,160 Descending Minneapolis Center
09:31PM 44.9014 -91.9975 266° West 333 383 14,800 -2,040 Descending Minneapolis Center
09:32PM 44.8958 -92.1231 266° West 323 372 12,900 -1,920 Descending Minneapolis Center
09:33PM 44.8881 -92.2486 265° West 323 372 10,900 -1,440 Descending Minneapolis Center
09:34PM 44.8664 -92.3678 256° West 318 366 10,000 -480 Descending Minneapolis Center
09:35PM 44.8289 -92.4753 244° Southwest 308 354 10,000 -600 Level Minneapolis Center
09:36PM 44.7961 -92.5653 243° Southwest 263 303 8,800 -1,260 Descending Minneapolis Center
09:37PM 44.7792 -92.6631 256° West 257 296 7,400 -1,440 Descending Minneapolis Center
09:38PM 44.7717 -92.7850 265° West 263 303 5,900 -1,200 Descending Minneapolis Center
09:39PM 44.7644 -92.8847 264° West 258 297 5,000 -840 Descending Minneapolis Center
09:40PM 44.7756 -92.9764 280° West 246 283 4,300 -780 Descending Minneapolis Center
09:41PM 44.8064 -93.0475 301° West 214 246 3,300 -900 Descending Minneapolis Center
09:42PM 44.8333 -93.1094 302° West 156 180 2,300 -900 Descending Minneapolis Center
09:43PM 44.8556 -93.1603 302° West 128 147 1,500 -840 Descending Minneapolis Center
09:46PM 44.8667 -93.2167 270° West  Level FlightAware Approximate